sensor_id;sensor_type;location;lat;lon;timestamp;pressure;altitude;pressure_sealevel;temperature;humidity
61484;BME280;47349;55.640;37.692;2023-03-15T00:00:39;98655.78;;;3.70;64.31
61484;BME280;47349;55.640;37.692;2023-03-15T00:03:08;98644.00;;;3.65;64.62
61484;BME280;47349;55.640;37.692;2023-03-15T00:05:35;98659.91;;;3.65;64.38
61484;BME280;47349;55.640;37.692;2023-03-15T00:08:02;98665.50;;;3.61;65.25
61484;BME280;47349;55.640;37.692;2023-03-15T00:10:30;98669.16;;;3.60;65.03
61484;BME280;47349;55.640;37.692;2023-03-15T00:12:57;98669.44;;;3.57;65.62
61484;BME280;47349;55.640;37.692;2023-03-15T00:15:24;98660.84;;;3.55;65.49
61484;BME280;47349;55.640;37.692;2023-03-15T00:17:50;98664.63;;;3.53;65.64
61484;BME280;47349;55.640;37.692;2023-03-15T00:20:17;98656.69;;;3.53;65.78
61484;BME280;47349;55.640;37.692;2023-03-15T00:22:45;98664.50;;;3.54;65.53
61484;BME280;47349;55.640;37.692;2023-03-15T00:25:12;98664.78;;;3.51;65.82
61484;BME280;47349;55.640;37.692;2023-03-15T00:27:39;98665.31;;;3.55;66.31
61484;BME280;47349;55.640;37.692;2023-03-15T00:30:06;98663.78;;;3.52;65.66
61484;BME280;47349;55.640;37.692;2023-03-15T00:32:33;98661.84;;;3.54;66.41
61484;BME280;47349;55.640;37.692;2023-03-15T00:35:01;98665.31;;;3.55;66.34
61484;BME280;47349;55.640;37.692;2023-03-15T00:37:29;98656.84;;;3.51;66.74
61484;BME280;47349;55.640;37.692;2023-03-15T00:39:58;98662.84;;;3.53;66.56
61484;BME280;47349;55.640;37.692;2023-03-15T00:42:27;98660.84;;;3.55;66.64
61484;BME280;47349;55.640;37.692;2023-03-15T00:44:54;98656.84;;;3.51;67.12
61484;BME280;47349;55.640;37.692;2023-03-15T00:47:23;98660.66;;;3.49;66.94
61484;BME280;47349;55.640;37.692;2023-03-15T00:49:51;98659.81;;;3.48;66.95
61484;BME280;47349;55.640;37.692;2023-03-15T00:52:21;98664.78;;;3.51;67.63
61484;BME280;47349;55.640;37.692;2023-03-15T00:54:52;98667.28;;;3.53;67.59
61484;BME280;47349;55.640;37.692;2023-03-15T00:57:20;98662.84;;;3.53;67.57
61484;BME280;47349;55.640;37.692;2023-03-15T00:59:47;98656.91;;;3.59;67.59
61484;BME280;47349;55.640;37.692;2023-03-15T01:02:14;98652.25;;;3.61;67.92
61484;BME280;47349;55.640;37.692;2023-03-15T01:04:43;98664.50;;;3.63;68.18
61484;BME280;47349;55.640;37.692;2023-03-15T01:07:10;98648.31;;;3.66;67.61
61484;BME280;47349;55.640;37.692;2023-03-15T01:09:37;98663.22;;;3.67;68.13
61484;BME280;47349;55.640;37.692;2023-03-15T01:12:04;98646.03;;;3.71;68.16
61484;BME280;47349;55.640;37.692;2023-03-15T01:14:31;98655.63;;;3.72;67.95
61484;BME280;47349;55.640;37.692;2023-03-15T01:17:01;98654.78;;;3.63;68.27
61484;BME280;47349;55.640;37.692;2023-03-15T01:19:28;98656.56;;;3.63;68.65
61484;BME280;47349;55.640;37.692;2023-03-15T01:21:55;98660.22;;;3.61;69.29
61484;BME280;47349;55.640;37.692;2023-03-15T01:24:21;98648.44;;;3.56;69.41
61484;BME280;47349;55.640;37.692;2023-03-15T01:26:49;98656.38;;;3.56;69.03
61484;BME280;47349;55.640;37.692;2023-03-15T01:29:16;98655.06;;;3.60;69.66
61484;BME280;47349;55.640;37.692;2023-03-15T01:31:43;98645.94;;;3.54;70.16
61484;BME280;47349;55.640;37.692;2023-03-15T01:34:10;98653.88;;;3.54;70.03
61484;BME280;47349;55.640;37.692;2023-03-15T01:36:37;98644.41;;;3.52;69.73
61484;BME280;47349;55.640;37.692;2023-03-15T01:39:04;98646.41;;;3.50;70.23
61484;BME280;47349;55.640;37.692;2023-03-15T01:41:39;98652.38;;;3.52;70.46
61484;BME280;47349;55.640;37.692;2023-03-15T01:44:09;98647.88;;;3.44;70.88
61484;BME280;47349;55.640;37.692;2023-03-15T01:46:37;98651.47;;;3.43;70.67
61484;BME280;47349;55.640;37.692;2023-03-15T01:49:31;98647.88;;;3.44;70.77
61484;BME280;47349;55.640;37.692;2023-03-15T01:52:02;98654.53;;;3.48;71.30
61484;BME280;47349;55.640;37.692;2023-03-15T01:55:08;98652.00;;;3.47;70.96
61484;BME280;47349;55.640;37.692;2023-03-15T01:57:44;98650.34;;;3.46;71.36
61484;BME280;47349;55.640;37.692;2023-03-15T02:00:13;98651.13;;;3.38;71.85
61484;BME280;47349;55.640;37.692;2023-03-15T02:03:17;98644.53;;;3.42;71.88
61484;BME280;47349;55.640;37.692;2023-03-15T02:05:50;98660.94;;;3.46;71.31
61484;BME280;47349;55.640;37.692;2023-03-15T02:08:36;98650.19;;;3.47;71.48
61484;BME280;47349;55.640;37.692;2023-03-15T02:11:04;98657.84;;;3.50;71.63
61484;BME280;47349;55.640;37.692;2023-03-15T02:13:32;98661.47;;;3.49;71.54
61484;BME280;47349;55.640;37.692;2023-03-15T02:16:04;98655.34;;;3.49;71.57
61484;BME280;47349;55.640;37.692;2023-03-15T02:18:41;98663.78;;;3.52;71.58
61484;BME280;47349;55.640;37.692;2023-03-15T02:23:35;98656.84;;;3.51;72.10
61484;BME280;47349;55.640;37.692;2023-03-15T02:28:45;98657.31;;;3.47;72.27
61484;BME280;47349;55.640;37.692;2023-03-15T02:31:12;98662.06;;;3.43;72.03
61484;BME280;47349;55.640;37.692;2023-03-15T02:33:44;98664.88;;;3.42;72.45
61484;BME280;47349;55.640;37.692;2023-03-15T02:36:20;98660.41;;;3.42;72.82
61484;BME280;47349;55.640;37.692;2023-03-15T02:38:47;98660.94;;;3.46;72.82
61484;BME280;47349;55.640;37.692;2023-03-15T02:41:37;98655.59;;;3.38;72.73
61484;BME280;47349;55.640;37.692;2023-03-15T02:44:06;98671.34;;;3.39;73.01
61484;BME280;47349;55.640;37.692;2023-03-15T02:46:34;98652.09;;;3.37;73.12
61484;BME280;47349;55.640;37.692;2023-03-15T02:49:02;98662.50;;;3.30;73.38
61484;BME280;47349;55.640;37.692;2023-03-15T02:51:31;98652.09;;;3.37;73.28
61484;BME280;47349;55.640;37.692;2023-03-15T02:53:59;98659.50;;;3.25;73.10
61484;BME280;47349;55.640;37.692;2023-03-15T02:56:26;98671.28;;;3.31;73.63
61484;BME280;47349;55.640;37.692;2023-03-15T02:58:53;98658.13;;;3.21;74.00
61484;BME280;47349;55.640;37.692;2023-03-15T03:01:20;98669.38;;;3.23;74.21
61484;BME280;47349;55.640;37.692;2023-03-15T03:03:46;98663.22;;;3.15;74.64
61484;BME280;47349;55.640;37.692;2023-03-15T03:06:14;98679.09;;;3.15;74.53
61484;BME280;47349;55.640;37.692;2023-03-15T03:08:43;98681.59;;;3.16;74.37
61484;BME280;47349;55.640;37.692;2023-03-15T03:11:15;98668.50;;;3.15;74.27
61484;BME280;47349;55.640;37.692;2023-03-15T03:13:43;98685.34;;;3.14;74.02
61484;BME280;47349;55.640;37.692;2023-03-15T03:16:10;98684.41;;;3.15;74.21
61484;BME280;47349;55.640;37.692;2023-03-15T03:18:37;98685.53;;;3.12;74.38
61484;BME280;47349;55.640;37.692;2023-03-15T03:21:05;98672.44;;;3.11;74.48
61484;BME280;47349;55.640;37.692;2023-03-15T03:23:33;98687.72;;;3.17;74.34
61484;BME280;47349;55.640;37.692;2023-03-15T03:26:02;98669.47;;;3.14;74.16
61484;BME280;47349;55.640;37.692;2023-03-15T03:28:30;98692.47;;;3.13;74.11
61484;BME280;47349;55.640;37.692;2023-03-15T03:30:59;98693.31;;;3.14;74.20
61484;BME280;47349;55.640;37.692;2023-03-15T03:33:27;98690.97;;;3.11;74.49
61484;BME280;47349;55.640;37.692;2023-03-15T03:35:59;98688.63;;;3.07;74.47
61484;BME280;47349;55.640;37.692;2023-03-15T03:38:28;98680.03;;;3.05;74.36
61484;BME280;47349;55.640;37.692;2023-03-15T03:40:58;98686.97;;;3.06;74.45
61484;BME280;47349;55.640;37.692;2023-03-15T03:43:27;98692.25;;;3.06;74.14
61484;BME280;47349;55.640;37.692;2023-03-15T03:45:54;98696.28;;;3.11;74.64
61484;BME280;47349;55.640;37.692;2023-03-15T03:48:21;98682.59;;;3.15;73.96
61484;BME280;47349;55.640;37.692;2023-03-15T03:50:48;98689.69;;;3.15;74.22
61484;BME280;47349;55.640;37.692;2023-03-15T03:53:15;98681.59;;;3.16;73.94
61484;BME280;47349;55.640;37.692;2023-03-15T03:55:42;98691.34;;;3.16;73.89
61484;BME280;47349;55.640;37.692;2023-03-15T03:58:14;98691.03;;;3.19;74.21
61484;BME280;47349;55.640;37.692;2023-03-15T04:00:47;98695.00;;;3.15;73.98
61484;BME280;47349;55.640;37.692;2023-03-15T04:03:15;98696.31;;;3.19;73.88
61484;BME280;47349;55.640;37.692;2023-03-15T04:05:46;98698.00;;;3.20;74.28
61484;BME280;47349;55.640;37.692;2023-03-15T04:08:17;98701.94;;;3.16;74.09
61484;BME280;47349;55.640;37.692;2023-03-15T04:10:48;98705.59;;;3.15;73.80
61484;BME280;47349;55.640;37.692;2023-03-15T04:13:15;98708.53;;;3.12;74.23
61484;BME280;47349;55.640;37.692;2023-03-15T04:15:42;98710.88;;;3.15;73.93
61484;BME280;47349;55.640;37.692;2023-03-15T04:18:09;98708.34;;;3.13;74.09
61484;BME280;47349;55.640;37.692;2023-03-15T04:20:40;98698.31;;;3.17;74.62
61484;BME280;47349;55.640;37.692;2023-03-15T04:23:15;98698.00;;;3.20;74.36
61484;BME280;47349;55.640;37.692;2023-03-15T04:26:08;98700.78;;;3.18;74.08
61484;BME280;47349;55.640;37.692;2023-03-15T04:29:12;98715.84;;;3.18;74.29
61484;BME280;47349;55.640;37.692;2023-03-15T04:32:01;98702.47;;;3.19;73.67
61484;BME280;47349;55.640;37.692;2023-03-15T04:34:42;98708.88;;;3.17;73.95
61484;BME280;47349;55.640;37.692;2023-03-15T04:37:28;98711.25;;;3.20;73.56
61484;BME280;47349;55.640;37.692;2023-03-15T04:40:07;98713.91;;;3.20;73.51
61484;BME280;47349;55.640;37.692;2023-03-15T04:42:46;98705.78;;;3.21;73.33
61484;BME280;47349;55.640;37.692;2023-03-15T04:45:33;98717.81;;;3.16;73.46
61484;BME280;47349;55.640;37.692;2023-03-15T04:48:19;98723.78;;;3.18;73.14
61484;BME280;47349;55.640;37.692;2023-03-15T04:51:18;98720.03;;;3.20;72.77
61484;BME280;47349;55.640;37.692;2023-03-15T04:54:09;98719.03;;;3.21;72.23
61484;BME280;47349;55.640;37.692;2023-03-15T04:57:02;98709.94;;;3.24;72.45
61484;BME280;47349;55.640;37.692;2023-03-15T04:59:49;98718.56;;;3.26;72.34
61484;BME280;47349;55.640;37.692;2023-03-15T05:02:31;98717.41;;;3.28;72.32
61484;BME280;47349;55.640;37.692;2023-03-15T05:05:12;98730.00;;;3.26;72.49
61484;BME280;47349;55.640;37.692;2023-03-15T05:08:02;98716.91;;;3.25;71.89
61484;BME280;47349;55.640;37.692;2023-03-15T05:10:34;98726.59;;;3.34;71.75
61484;BME280;47349;55.640;37.692;2023-03-15T05:13:25;98728.09;;;3.37;71.35
61484;BME280;47349;55.640;37.692;2023-03-15T05:16:15;98731.25;;;3.40;71.25
61484;BME280;47349;55.640;37.692;2023-03-15T05:18:48;98722.41;;;3.31;71.08
61484;BME280;47349;55.640;37.692;2023-03-15T05:21:42;98733.75;;;3.42;70.78
61484;BME280;47349;55.640;37.692;2023-03-15T05:24:31;98751.69;;;3.48;70.81
61484;BME280;47349;55.640;37.692;2023-03-15T05:27:20;98760.16;;;3.51;70.00
61484;BME280;47349;55.640;37.692;2023-03-15T05:30:00;98766.34;;;3.60;70.40
61484;BME280;47349;55.640;37.692;2023-03-15T05:32:59;98764.25;;;3.64;70.08
61484;BME280;47349;55.640;37.692;2023-03-15T05:35:53;98754.13;;;3.67;70.01
61484;BME280;47349;55.640;37.692;2023-03-15T05:38:43;98740.53;;;3.62;69.74
61484;BME280;47349;55.640;37.692;2023-03-15T05:41:34;98751.19;;;3.70;70.05
61484;BME280;47349;55.640;37.692;2023-03-15T05:44:36;98764.97;;;3.74;69.68
61484;BME280;47349;55.640;37.692;2023-03-15T05:47:21;98754.94;;;3.85;69.49
61484;BME280;47349;55.640;37.692;2023-03-15T05:50:12;98776.03;;;3.95;68.56
61484;BME280;47349;55.640;37.692;2023-03-15T05:52:39;98760.28;;;3.94;69.44
61484;BME280;47349;55.640;37.692;2023-03-15T05:55:38;98778.44;;;4.06;68.42
61484;BME280;47349;55.640;37.692;2023-03-15T05:58:23;98775.78;;;4.06;68.12
61484;BME280;47349;55.640;37.692;2023-03-15T06:01:09;98772.97;;;4.08;68.03
61484;BME280;47349;55.640;37.692;2023-03-15T06:04:05;98782.28;;;4.12;68.02
61484;BME280;47349;55.640;37.692;2023-03-15T06:06:33;98789.41;;;4.11;67.82
61484;BME280;47349;55.640;37.692;2023-03-15T06:09:03;98788.78;;;4.18;67.79
61484;BME280;47349;55.640;37.692;2023-03-15T06:11:31;98786.97;;;4.18;67.71
61484;BME280;47349;55.640;37.692;2023-03-15T06:13:59;98782.66;;;4.17;67.98
61484;BME280;47349;55.640;37.692;2023-03-15T06:16:35;98788.16;;;4.24;68.10
61484;BME280;47349;55.640;37.692;2023-03-15T06:19:03;98796.78;;;4.26;67.09
61484;BME280;47349;55.640;37.692;2023-03-15T06:21:30;98794.50;;;4.31;67.87
61484;BME280;47349;55.640;37.692;2023-03-15T06:23:58;98777.22;;;4.27;67.36
61484;BME280;47349;55.640;37.692;2023-03-15T06:26:25;98787.94;;;4.17;68.11
61484;BME280;47349;55.640;37.692;2023-03-15T06:28:57;98790.50;;;4.27;68.12
61484;BME280;47349;55.640;37.692;2023-03-15T06:31:24;98785.53;;;4.32;67.05
61484;BME280;47349;55.640;37.692;2023-03-15T06:34:00;98783.06;;;4.30;67.30
61484;BME280;47349;55.640;37.692;2023-03-15T06:36:28;98772.94;;;4.34;67.11
61484;BME280;47349;55.640;37.692;2023-03-15T06:38:56;98759.03;;;4.32;67.88
61484;BME280;47349;55.640;37.692;2023-03-15T06:41:23;98780.13;;;4.42;67.31
61484;BME280;47349;55.640;37.692;2023-03-15T06:43:55;98786.25;;;4.42;67.01
61484;BME280;47349;55.640;37.692;2023-03-15T06:46:22;98789.25;;;4.47;67.25
61484;BME280;47349;55.640;37.692;2023-03-15T06:48:49;98809.72;;;4.55;67.37
61484;BME280;47349;55.640;37.692;2023-03-15T06:51:18;98786.31;;;4.50;67.60
61484;BME280;47349;55.640;37.692;2023-03-15T06:53:45;98813.53;;;4.60;66.73
61484;BME280;47349;55.640;37.692;2023-03-15T06:56:13;98788.63;;;4.53;67.79
61484;BME280;47349;55.640;37.692;2023-03-15T06:58:39;98794.44;;;4.57;67.18
61484;BME280;47349;55.640;37.692;2023-03-15T07:01:06;98787.47;;;4.56;67.64
61484;BME280;47349;55.640;37.692;2023-03-15T07:03:34;98811.44;;;4.72;67.70
61484;BME280;47349;55.640;37.692;2023-03-15T07:06:01;98809.41;;;4.66;67.26
61484;BME280;47349;55.640;37.692;2023-03-15T07:08:28;98803.81;;;4.77;67.62
61484;BME280;47349;55.640;37.692;2023-03-15T07:10:55;98804.38;;;4.89;67.41
61484;BME280;47349;55.640;37.692;2023-03-15T07:13:23;98805.53;;;4.95;66.65
61484;BME280;47349;55.640;37.692;2023-03-15T07:15:51;98805.72;;;5.01;67.30
61484;BME280;47349;55.640;37.692;2023-03-15T07:18:18;98808.09;;;5.21;67.16
61484;BME280;47349;55.640;37.692;2023-03-15T07:20:45;98808.09;;;5.21;66.64
61484;BME280;47349;55.640;37.692;2023-03-15T07:23:12;98809.13;;;5.28;65.97
61484;BME280;47349;55.640;37.692;2023-03-15T07:25:39;98818.25;;;5.33;65.88
61484;BME280;47349;55.640;37.692;2023-03-15T07:28:20;98822.25;;;5.46;65.52
61484;BME280;47349;55.640;37.692;2023-03-15T07:31:06;98817.44;;;5.49;65.45
61484;BME280;47349;55.640;37.692;2023-03-15T07:33:33;98829.72;;;5.50;65.37
61484;BME280;47349;55.640;37.692;2023-03-15T07:36:02;98828.09;;;5.57;65.17
61484;BME280;47349;55.640;37.692;2023-03-15T07:38:32;98835.06;;;5.75;64.73
61484;BME280;47349;55.640;37.692;2023-03-15T07:41:00;98838.72;;;5.82;64.07
61484;BME280;47349;55.640;37.692;2023-03-15T07:43:28;98841.09;;;6.01;64.42
61484;BME280;47349;55.640;37.692;2023-03-15T07:46:10;98838.25;;;6.11;64.08
61484;BME280;47349;55.640;37.692;2023-03-15T07:48:37;98843.56;;;6.11;64.17
61484;BME280;47349;55.640;37.692;2023-03-15T07:51:04;98847.34;;;6.33;63.38
61484;BME280;47349;55.640;37.692;2023-03-15T07:53:31;98845.88;;;6.38;63.52
61484;BME280;47349;55.640;37.692;2023-03-15T07:55:58;98846.31;;;6.50;63.00
61484;BME280;47349;55.640;37.692;2023-03-15T07:58:27;98843.03;;;6.40;63.72
61484;BME280;47349;55.640;37.692;2023-03-15T08:00:55;98843.19;;;6.38;63.53
61484;BME280;47349;55.640;37.692;2023-03-15T08:03:22;98850.66;;;6.43;63.41
61484;BME280;47349;55.640;37.692;2023-03-15T08:05:49;98865.09;;;6.57;63.29
61484;BME280;47349;55.640;37.692;2023-03-15T08:08:17;98865.81;;;6.34;63.40
61484;BME280;47349;55.640;37.692;2023-03-15T08:10:44;98859.69;;;6.34;63.37
61484;BME280;47349;55.640;37.692;2023-03-15T08:13:11;98847.03;;;6.36;63.96
61484;BME280;47349;55.640;37.692;2023-03-15T08:15:39;98859.16;;;6.38;64.38
61484;BME280;47349;55.640;37.692;2023-03-15T08:18:06;98863.13;;;6.42;63.89
61484;BME280;47349;55.640;37.692;2023-03-15T08:20:33;98860.97;;;6.46;63.96
61484;BME280;47349;55.640;37.692;2023-03-15T08:23:00;98862.66;;;6.39;64.18
61484;BME280;47349;55.640;37.692;2023-03-15T08:25:27;98844.50;;;6.42;64.27
61484;BME280;47349;55.640;37.692;2023-03-15T08:27:54;98860.13;;;6.46;64.57
61484;BME280;47349;55.640;37.692;2023-03-15T08:30:22;98848.47;;;6.63;64.17
61484;BME280;47349;55.640;37.692;2023-03-15T08:32:49;98846.50;;;6.49;64.43
61484;BME280;47349;55.640;37.692;2023-03-15T08:35:20;98858.63;;;6.51;64.25
61484;BME280;47349;55.640;37.692;2023-03-15T08:37:47;98860.78;;;6.48;64.22
61484;BME280;47349;55.640;37.692;2023-03-15T08:40:15;98856.50;;;6.38;64.92
61484;BME280;47349;55.640;37.692;2023-03-15T08:42:44;98865.47;;;6.54;64.63
61484;BME280;47349;55.640;37.692;2023-03-15T08:45:12;98854.13;;;6.60;64.29
61484;BME280;47349;55.640;37.692;2023-03-15T08:47:41;98854.81;;;6.46;65.21
61484;BME280;47349;55.640;37.692;2023-03-15T08:50:13;98859.31;;;6.45;65.12
61484;BME280;47349;55.640;37.692;2023-03-15T08:52:44;98857.94;;;6.57;65.03
61484;BME280;47349;55.640;37.692;2023-03-15T08:55:12;98862.91;;;6.68;64.87
61484;BME280;47349;55.640;37.692;2023-03-15T08:57:42;98867.75;;;6.57;65.24
61484;BME280;47349;55.640;37.692;2023-03-15T09:00:09;98862.59;;;6.63;64.79
61484;BME280;47349;55.640;37.692;2023-03-15T09:02:55;98870.22;;;6.75;64.69
61484;BME280;47349;55.640;37.692;2023-03-15T09:05:22;98823.22;;;6.42;65.16
61484;BME280;47349;55.640;37.692;2023-03-15T09:07:50;98867.31;;;6.45;65.40
61484;BME280;47349;55.640;37.692;2023-03-15T09:10:19;98846.97;;;6.52;66.12
61484;BME280;47349;55.640;37.692;2023-03-15T09:12:50;98857.94;;;6.65;65.71
61484;BME280;47349;55.640;37.692;2023-03-15T09:15:19;98858.56;;;6.76;65.57
61484;BME280;47349;55.640;37.692;2023-03-15T09:17:48;98858.25;;;6.70;65.69
61484;BME280;47349;55.640;37.692;2023-03-15T09:20:16;98856.88;;;6.83;65.04
61484;BME280;47349;55.640;37.692;2023-03-15T09:22:49;98857.84;;;6.90;65.16
61484;BME280;47349;55.640;37.692;2023-03-15T09:25:16;98857.94;;;7.05;65.24
61484;BME280;47349;55.640;37.692;2023-03-15T09:27:43;98855.50;;;6.95;64.86
61484;BME280;47349;55.640;37.692;2023-03-15T09:30:10;98859.19;;;6.86;65.17
61484;BME280;47349;55.640;37.692;2023-03-15T09:32:38;98868.53;;;6.82;65.36
61484;BME280;47349;55.640;37.692;2023-03-15T09:35:06;98856.00;;;6.90;65.06
61484;BME280;47349;55.640;37.692;2023-03-15T09:37:34;98860.81;;;6.95;65.12
61484;BME280;47349;55.640;37.692;2023-03-15T09:40:01;98865.59;;;7.08;65.07
61484;BME280;47349;55.640;37.692;2023-03-15T09:42:33;98853.09;;;7.08;64.83
61484;BME280;47349;55.640;37.692;2023-03-15T09:45:09;98861.00;;;7.25;65.03
61484;BME280;47349;55.640;37.692;2023-03-15T09:47:59;98846.63;;;7.34;64.01
61484;BME280;47349;55.640;37.692;2023-03-15T09:50:31;98861.88;;;7.48;63.97
61484;BME280;47349;55.640;37.692;2023-03-15T09:53:03;98848.22;;;7.51;64.07
61484;BME280;47349;55.640;37.692;2023-03-15T09:55:31;98846.13;;;7.61;63.55
61484;BME280;47349;55.640;37.692;2023-03-15T09:57:59;98850.84;;;7.59;63.30
61484;BME280;47349;55.640;37.692;2023-03-15T10:03:00;98847.38;;;7.73;63.02
61484;BME280;47349;55.640;37.692;2023-03-15T10:05:48;98858.28;;;7.87;63.20
61484;BME280;47349;55.640;37.692;2023-03-15T10:08:17;98846.34;;;7.97;63.08
61484;BME280;47349;55.640;37.692;2023-03-15T10:16:07;98839.13;;;8.21;61.79
61484;BME280;47349;55.640;37.692;2023-03-15T10:21:13;98823.09;;;8.06;62.13
61484;BME280;47349;55.640;37.692;2023-03-15T10:24:16;98821.63;;;8.04;61.77
61484;BME280;47349;55.640;37.692;2023-03-15T10:26:36;98822.22;;;7.91;62.30
61484;BME280;47349;55.640;37.692;2023-03-15T10:29:08;98823.34;;;7.96;62.27
61484;BME280;47349;55.640;37.692;2023-03-15T10:31:38;98817.91;;;7.90;62.59
61484;BME280;47349;55.640;37.692;2023-03-15T10:34:10;98810.69;;;7.76;63.08
61484;BME280;47349;55.640;37.692;2023-03-15T10:36:48;98829.25;;;7.69;63.35
61484;BME280;47349;55.640;37.692;2023-03-15T10:39:16;98819.13;;;7.64;63.58
61484;BME280;47349;55.640;37.692;2023-03-15T10:41:44;98822.97;;;7.62;63.80
61484;BME280;47349;55.640;37.692;2023-03-15T10:44:13;98838.44;;;7.66;63.98
61484;BME280;47349;55.640;37.692;2023-03-15T10:46:41;98841.81;;;7.60;63.99
61484;BME280;47349;55.640;37.692;2023-03-15T10:49:12;98845.94;;;7.63;63.88
61484;BME280;47349;55.640;37.692;2023-03-15T10:51:43;98840.31;;;7.58;64.09
61484;BME280;47349;55.640;37.692;2023-03-15T10:54:15;98845.50;;;7.59;64.05
61484;BME280;47349;55.640;37.692;2023-03-15T10:59:14;98843.88;;;7.73;63.78
61484;BME280;47349;55.640;37.692;2023-03-15T11:01:42;98835.97;;;7.65;64.01
61484;BME280;47349;55.640;37.692;2023-03-15T11:06:45;98848.91;;;7.91;63.58
61484;BME280;47349;55.640;37.692;2023-03-15T11:09:14;98852.44;;;8.06;63.17
61484;BME280;47349;55.640;37.692;2023-03-15T11:11:50;98837.41;;;8.13;62.92
61484;BME280;47349;55.640;37.692;2023-03-15T11:14:19;98851.03;;;8.18;62.73
61484;BME280;47349;55.640;37.692;2023-03-15T11:16:47;98853.25;;;8.30;62.32
61484;BME280;47349;55.640;37.692;2023-03-15T11:19:16;98847.56;;;8.33;62.43
61484;BME280;47349;55.640;37.692;2023-03-15T11:21:43;98834.81;;;8.20;62.78
61484;BME280;47349;55.640;37.692;2023-03-15T11:24:17;98832.06;;;8.13;62.58
61484;BME280;47349;55.640;37.692;2023-03-15T11:26:46;98840.34;;;8.18;62.45
61484;BME280;47349;55.640;37.692;2023-03-15T11:29:22;98840.44;;;8.25;62.11
61484;BME280;47349;55.640;37.692;2023-03-15T11:31:50;98834.13;;;8.41;62.35
61484;BME280;47349;55.640;37.692;2023-03-15T11:36:53;98826.97;;;8.56;61.51
61484;BME280;47349;55.640;37.692;2023-03-15T11:40:20;98843.72;;;8.50;61.70
61484;BME280;47349;55.640;37.692;2023-03-15T11:43:19;98841.44;;;8.77;61.39
61484;BME280;47349;55.640;37.692;2023-03-15T11:45:43;98824.84;;;8.81;61.18
61484;BME280;47349;55.640;37.692;2023-03-15T11:48:31;98839.88;;;8.82;60.70
61484;BME280;47349;55.640;37.692;2023-03-15T11:51:02;98825.84;;;8.65;61.68
61484;BME280;47349;55.640;37.692;2023-03-15T11:53:32;98825.22;;;8.78;60.62
61484;BME280;47349;55.640;37.692;2023-03-15T11:58:58;98818.13;;;9.00;60.33
61484;BME280;47349;55.640;37.692;2023-03-15T12:01:29;98843.28;;;8.91;60.22
61484;BME280;47349;55.640;37.692;2023-03-15T12:06:42;98823.75;;;8.61;61.05
61484;BME280;47349;55.640;37.692;2023-03-15T12:11:56;98855.50;;;8.41;61.56
61484;BME280;47349;55.640;37.692;2023-03-15T12:14:28;98835.91;;;8.63;60.88
61484;BME280;47349;55.640;37.692;2023-03-15T12:17:31;98845.75;;;8.78;60.86
61484;BME280;47349;55.640;37.692;2023-03-15T12:19:42;98852.13;;;8.77;60.49
61484;BME280;47349;55.640;37.692;2023-03-15T12:22:14;98859.03;;;8.86;60.23
61484;BME280;47349;55.640;37.692;2023-03-15T12:24:43;98852.22;;;8.68;61.18
61484;BME280;47349;55.640;37.692;2023-03-15T12:27:18;98862.53;;;8.71;61.13
61484;BME280;47349;55.640;37.692;2023-03-15T12:29:46;98868.59;;;8.65;61.23
61484;BME280;47349;55.640;37.692;2023-03-15T12:32:15;98859.47;;;8.60;61.64
61484;BME280;47349;55.640;37.692;2023-03-15T12:34:52;98836.47;;;8.59;61.46
61484;BME280;47349;55.640;37.692;2023-03-15T12:37:42;98864.91;;;8.37;61.75
61484;BME280;47349;55.640;37.692;2023-03-15T12:52:58;98872.28;;;8.49;62.06
61484;BME280;47349;55.640;37.692;2023-03-15T12:55:32;98853.97;;;8.61;61.37
61484;BME280;47349;55.640;37.692;2023-03-15T12:58:00;98869.72;;;8.56;61.79
61484;BME280;47349;55.640;37.692;2023-03-15T13:00:29;98868.69;;;8.42;62.28
61484;BME280;47349;55.640;37.692;2023-03-15T13:08:30;98867.38;;;9.12;60.23
61484;BME280;47349;55.640;37.692;2023-03-15T13:18:57;98849.66;;;10.05;57.03
61484;BME280;47349;55.640;37.692;2023-03-15T13:21:26;98850.06;;;10.02;57.12
61484;BME280;47349;55.640;37.692;2023-03-15T13:23:57;98847.53;;;10.00;56.58
61484;BME280;47349;55.640;37.692;2023-03-15T13:29:11;98842.50;;;10.12;56.03
61484;BME280;47349;55.640;37.692;2023-03-15T13:31:40;98844.28;;;10.05;56.16
61484;BME280;47349;55.640;37.692;2023-03-15T13:34:15;98841.97;;;10.23;56.32
61484;BME280;47349;55.640;37.692;2023-03-15T13:36:46;98838.31;;;10.24;55.67
61484;BME280;47349;55.640;37.692;2023-03-15T13:41:45;98844.75;;;10.30;55.07
61484;BME280;47349;55.640;37.692;2023-03-15T13:44:15;98851.16;;;10.14;56.06
61484;BME280;47349;55.640;37.692;2023-03-15T13:46:42;98852.84;;;10.37;55.26
61484;BME280;47349;55.640;37.692;2023-03-15T13:49:10;98850.88;;;10.52;54.48
61484;BME280;47349;55.640;37.692;2023-03-15T13:51:39;98852.28;;;10.48;55.26
61484;BME280;47349;55.640;37.692;2023-03-15T13:56:53;98847.47;;;10.37;55.56
61484;BME280;47349;55.640;37.692;2023-03-15T13:59:28;98851.94;;;10.29;55.32
61484;BME280;47349;55.640;37.692;2023-03-15T14:01:58;98846.56;;;10.29;54.94
61484;BME280;47349;55.640;37.692;2023-03-15T14:04:28;98847.84;;;10.34;55.04
61484;BME280;47349;55.640;37.692;2023-03-15T14:07:40;98843.28;;;10.27;54.98
61484;BME280;47349;55.640;37.692;2023-03-15T14:09:47;98853.84;;;10.14;55.09
61484;BME280;47349;55.640;37.692;2023-03-15T14:12:17;98844.75;;;10.09;55.70
61484;BME280;47349;55.640;37.692;2023-03-15T14:14:49;98849.81;;;9.97;55.16
61484;BME280;47349;55.640;37.692;2023-03-15T14:17:19;98844.06;;;9.78;56.35
61484;BME280;47349;55.640;37.692;2023-03-15T14:19:54;98853.38;;;9.83;55.64
61484;BME280;47349;55.640;37.692;2023-03-15T14:22:21;98847.50;;;9.72;56.26
61484;BME280;47349;55.640;37.692;2023-03-15T14:24:49;98838.13;;;9.62;55.92
61484;BME280;47349;55.640;37.692;2023-03-15T14:27:21;98841.00;;;9.60;56.30
61484;BME280;47349;55.640;37.692;2023-03-15T14:29:51;98845.56;;;9.66;56.23
61484;BME280;47349;55.640;37.692;2023-03-15T14:32:23;98840.47;;;9.50;56.63